Time;durP1;ratioP1;P1;durP2;ratioP2;P2;SDS_P1;SDS_P2;PMS_P1;PMS_P2;Temp;Humidity;BMP_temperature;BMP_pressure;BME280_temperature;BME280_humidity;BME280_pressure;Samples;Min_cycle;Max_cycle;Signal;HPM_P1;HPM_P2
2022/09/27 00:00:37;;;;;;;9.82;1.85;;;10.20;99.90;;;;;;5058132;28;20075;-52
2022/09/27 00:03:03;;;;;;;10.40;2.00;;;10.10;99.90;;;;;;5076671;28;20086;-48
2022/09/27 00:05:29;;;;;;;7.10;1.30;;;10.00;99.90;;;;;;5076765;28;20051;-50
2022/09/27 00:07:56;;;;;;;5.65;2.08;;;9.90;99.90;;;;;;5053744;28;20059;-50
2022/09/27 00:10:22;;;;;;;6.95;1.52;;;9.90;99.90;;;;;;5056386;28;20036;-50
2022/09/27 00:12:48;;;;;;;7.82;1.38;;;9.90;99.90;;;;;;5060368;28;20048;-42
2022/09/27 00:15:15;;;;;;;6.72;1.00;;;9.80;99.90;;;;;;5060526;28;20044;-49
2022/09/27 00:17:42;;;;;;;10.32;1.70;;;9.70;99.90;;;;;;5044337;28;20040;-51
2022/09/27 00:20:08;;;;;;;3.90;1.00;;;9.70;99.90;;;;;;5060142;28;20944;-49
2022/09/27 00:22:35;;;;;;;5.45;1.17;;;9.70;99.90;;;;;;5067666;28;20676;-52
2022/09/27 00:25:04;;;;;;;6.80;1.27;;;9.60;99.90;;;;;;5072278;28;20050;-50
2022/09/27 00:27:30;;;;;;;6.43;1.10;;;9.50;99.90;;;;;;5063417;28;20040;-51
2022/09/27 00:29:57;;;;;;;4.40;1.00;;;9.50;99.90;;;;;;5021589;28;20051;-46
2022/09/27 00:32:23;;;;;;;6.82;1.10;;;9.50;99.90;;;;;;5043194;28;21012;-48
2022/09/27 00:34:49;;;;;;;7.60;1.38;;;9.50;99.90;;;;;;5052604;28;20056;-47
2022/09/27 00:37:15;;;;;;;4.85;1.10;;;9.40;99.90;;;;;;5060121;28;20040;-50
2022/09/27 00:39:42;;;;;;;4.45;1.10;;;9.40;99.90;;;;;;5052509;28;20067;-50
2022/09/27 00:42:10;;;;;;;7.47;1.70;;;9.40;99.90;;;;;;5060334;28;20599;-47
2022/09/27 00:44:40;;;;;;;7.00;1.08;;;9.30;99.90;;;;;;5057205;28;20054;-48
2022/09/27 00:47:24;;;;;;;3.70;1.10;;;9.40;99.90;;;;;;5065492;28;20040;-48
2022/09/27 00:50:09;;;;;;;7.22;1.05;;;9.30;99.90;;;;;;5065319;28;20055;-49
2022/09/27 00:52:47;;;;;;;6.05;1.15;;;9.40;99.90;;;;;;5044041;28;20119;-51
2022/09/27 00:55:28;;;;;;;7.68;1.10;;;9.40;99.90;;;;;;5045638;28;20078;-51
2022/09/27 00:57:55;;;;;;;4.13;0.93;;;9.40;99.90;;;;;;5064144;28;20091;-51
2022/09/27 01:00:22;;;;;;;10.77;1.90;;;9.40;99.90;;;;;;5082861;28;20040;-51
2022/09/27 01:02:51;;;;;;;7.55;1.23;;;9.40;99.90;;;;;;5060367;28;20063;-47
2022/09/27 01:05:21;;;;;;;5.70;0.98;;;9.30;99.90;;;;;;5080376;28;20581;-48
2022/09/27 01:07:48;;;;;;;8.15;1.20;;;9.30;99.90;;;;;;5053170;28;20052;-48
2022/09/27 01:10:16;;;;;;;4.30;0.70;;;9.30;99.90;;;;;;5060351;28;20051;-51
2022/09/27 01:13:22;;;;;;;4.90;0.90;;;9.30;99.90;;;;;;5069208;28;20499;-47
2022/09/27 01:16:12;;;;;;;6.22;1.13;;;9.30;99.90;;;;;;5034759;28;20079;-50
2022/09/27 01:18:59;;;;;;;4.93;1.15;;;9.30;99.90;;;;;;5046047;28;20629;-50
2022/09/27 01:21:59;;;;;;;5.95;1.13;;;9.30;99.90;;;;;;5064699;28;20039;-47
2022/09/27 01:25:03;;;;;;;4.88;0.80;;;9.30;99.90;;;;;;5058500;28;20040;-48
2022/09/27 01:27:56;;;;;;;7.00;1.02;;;9.40;99.90;;;;;;5061240;28;20056;-51
2022/09/27 01:31:00;;;;;;;7.10;1.17;;;9.40;99.90;;;;;;5072610;28;20049;-48
2022/09/27 01:33:49;;;;;;;4.85;0.80;;;9.40;99.90;;;;;;5094538;27;20114;-48
2022/09/27 01:36:33;;;;;;;11.35;1.98;;;9.50;99.90;;;;;;5061771;28;20079;-49
2022/09/27 01:39:05;;;;;;;4.13;1.10;;;9.50;99.90;;;;;;5047009;28;20127;-48
2022/09/27 01:41:59;;;;;;;7.82;1.30;;;9.50;99.90;;;;;;5039319;28;20165;-48
2022/09/27 01:44:43;;;;;;;5.35;1.13;;;9.50;99.90;;;;;;5061524;28;20780;-51
2022/09/27 01:47:20;;;;;;;6.78;1.42;;;9.50;99.90;;;;;;5063364;28;20478;-48
2022/09/27 01:50:34;;;;;;;3.20;1.20;;;9.50;99.90;;;;;;5064669;28;20048;-50
2022/09/27 01:53:21;;;;;;;6.05;1.45;;;9.50;99.90;;;;;;5063568;28;20048;-51
2022/09/27 01:56:23;;;;;;;6.95;1.45;;;9.40;99.90;;;;;;5055650;28;20059;-48
2022/09/27 01:59:06;;;;;;;4.72;0.93;;;9.40;99.90;;;;;;5075889;28;20054;-50
2022/09/27 02:01:35;;;;;;;6.03;1.10;;;9.30;99.90;;;;;;5041756;28;20051;-46
2022/09/27 02:04:04;;;;;;;5.15;1.05;;;9.30;99.90;;;;;;5060260;28;20654;-51
2022/09/27 02:06:42;;;;;;;5.68;1.08;;;9.20;99.90;;;;;;5070054;28;20105;-51
2022/09/27 02:09:28;;;;;;;3.03;0.75;;;9.20;99.90;;;;;;5054088;28;20045;-47
2022/09/27 02:12:11;;;;;;;3.28;1.00;;;9.20;99.90;;;;;;5076594;28;20052;-48
2022/09/27 02:15:09;;;;;;;6.13;1.10;;;9.20;99.90;;;;;;5078724;28;20490;-49
2022/09/27 02:17:36;;;;;;;5.97;0.95;;;9.20;99.90;;;;;;5059780;28;20054;-51
2022/09/27 02:20:34;;;;;;;6.65;0.98;;;9.20;99.90;;;;;;5049080;28;20036;-47
2022/09/27 02:23:25;;;;;;;5.75;1.00;;;9.30;99.90;;;;;;5056630;28;20607;-50
2022/09/27 02:26:11;;;;;;;6.55;1.60;;;9.30;99.90;;;;;;5060164;28;20047;-50
2022/09/27 02:28:52;;;;;;;5.15;1.10;;;9.30;99.90;;;;;;5038394;28;20558;-47
2022/09/27 02:31:25;;;;;;;4.65;0.90;;;9.30;99.90;;;;;;5055172;28;20055;-51
2022/09/27 02:33:59;;;;;;;8.82;1.40;;;9.30;99.90;;;;;;5094558;28;20054;-48
2022/09/27 02:36:25;;;;;;;5.13;0.85;;;9.30;99.90;;;;;;5042875;28;20097;-47
2022/09/27 02:38:51;;;;;;;3.25;0.98;;;9.30;99.90;;;;;;5056850;28;20760;-51
2022/09/27 02:41:21;;;;;;;4.20;0.80;;;9.30;99.90;;;;;;5024233;28;20776;-51
2022/09/27 02:43:54;;;;;;;7.05;0.93;;;9.30;99.90;;;;;;5027158;28;20108;-51
2022/09/27 02:46:33;;;;;;;4.93;0.70;;;9.30;99.90;;;;;;5058462;28;20044;-47
2022/09/27 02:49:02;;;;;;;7.40;1.15;;;9.30;99.90;;;;;;5060272;28;20107;-51
2022/09/27 02:51:47;;;;;;;4.10;1.05;;;9.20;99.90;;;;;;5072208;28;20397;-48
2022/09/27 02:54:27;;;;;;;5.68;1.27;;;9.20;99.90;;;;;;5076133;28;20059;-52
2022/09/27 02:57:10;;;;;;;9.60;1.42;;;9.20;99.90;;;;;;5078013;28;20040;-44
2022/09/27 03:00:00;;;;;;;4.63;0.90;;;9.20;99.90;;;;;;5074952;28;20075;-48
2022/09/27 03:02:47;;;;;;;3.58;0.75;;;9.20;99.90;;;;;;5078988;28;20250;-43
2022/09/27 03:05:58;;;;;;;4.40;1.00;;;9.10;99.90;;;;;;5059521;28;20442;-51
2022/09/27 03:08:24;;;;;;;7.80;1.05;;;9.20;99.90;;;;;;5059046;28;20051;-42
2022/09/27 03:10:51;;;;;;;8.60;1.10;;;9.20;99.90;;;;;;5025889;28;20044;-44
2022/09/27 03:13:18;;;;;;;3.95;0.70;;;9.20;99.90;;;;;;5011686;28;20048;-43
2022/09/27 03:15:45;;;;;;;2.95;0.80;;;9.20;99.90;;;;;;5042391;28;20713;-50
2022/09/27 03:18:17;;;;;;;3.65;0.93;;;9.20;99.90;;;;;;5053994;28;20632;-44
2022/09/27 03:21:02;;;;;;;4.60;0.80;;;9.20;99.90;;;;;;5038539;28;20047;-53
2022/09/27 03:23:28;;;;;;;4.70;0.80;;;9.10;99.90;;;;;;5070125;28;20044;-52
2022/09/27 03:25:54;;;;;;;4.00;0.80;;;9.10;99.90;;;;;;5021096;28;20056;-48
2022/09/27 03:28:21;;;;;;;7.13;0.90;;;9.10;99.90;;;;;;5009185;28;20039;-45
2022/09/27 03:30:47;;;;;;;5.90;1.20;;;9.10;99.90;;;;;;5041395;28;20138;-43
2022/09/27 03:33:33;;;;;;;3.17;0.90;;;9.10;99.90;;;;;;5072679;28;20044;-46
2022/09/27 03:36:06;;;;;;;4.93;1.10;;;9.10;99.90;;;;;;5041846;28;20498;-43
2022/09/27 03:38:32;;;;;;;5.38;1.00;;;9.10;99.90;;;;;;5040236;28;20812;-47
2022/09/27 03:40:58;;;;;;;8.82;1.15;;;9.10;99.90;;;;;;5035944;28;20453;-51
2022/09/27 03:43:25;;;;;;;3.30;0.70;;;9.10;99.90;;;;;;5058262;28;20063;-47
2022/09/27 03:45:57;;;;;;;3.42;0.75;;;9.10;99.90;;;;;;5031144;28;20079;-49
2022/09/27 03:48:24;;;;;;;5.43;1.00;;;9.10;99.90;;;;;;5079504;28;20044;-47
2022/09/27 03:50:50;;;;;;;3.22;0.93;;;9.10;99.90;;;;;;5045658;28;20052;-52
2022/09/27 03:53:16;;;;;;;6.13;1.17;;;9.10;99.90;;;;;;5072040;28;20140;-49
2022/09/27 03:55:45;;;;;;;6.85;0.98;;;9.10;99.90;;;;;;5044599;28;20047;-51
2022/09/27 03:58:11;;;;;;;3.70;0.70;;;9.00;99.90;;;;;;5065554;28;20059;-49
2022/09/27 04:00:37;;;;;;;5.28;0.88;;;9.00;99.90;;;;;;5056413;28;20055;-47
2022/09/27 04:03:04;;;;;;;5.05;1.00;;;8.90;99.90;;;;;;5062542;28;20062;-47
2022/09/27 04:05:36;;;;;;;3.50;0.88;;;8.90;99.90;;;;;;5046011;28;20040;-51
2022/09/27 04:08:10;;;;;;;5.82;1.13;;;8.90;99.90;;;;;;5045195;28;20044;-48
2022/09/27 04:10:37;;;;;;;4.60;1.05;;;8.90;99.90;;;;;;5049191;28;20528;-43
2022/09/27 04:13:04;;;;;;;6.57;0.85;;;8.90;99.90;;;;;;5061916;28;20044;-44
2022/09/27 04:15:36;;;;;;;;;;;8.90;99.90;;;;;;5049056;28;20105;-49
2022/09/27 04:18:21;;;;;;;7.57;1.00;;;8.80;99.90;;;;;;5080530;28;19928;-47
2022/09/27 04:21:08;;;;;;;7.05;1.10;;;8.80;99.90;;;;;;5023199;28;20138;-48
2022/09/27 04:23:36;;;;;;;4.38;0.82;;;8.80;99.90;;;;;;5066868;28;20794;-42
2022/09/27 04:26:03;;;;;;;6.45;1.00;;;8.70;99.90;;;;;;5062660;28;20055;-49
2022/09/27 04:28:50;;;;;;;4.90;1.00;;;8.70;99.90;;;;;;5030422;28;20528;-46
2022/09/27 04:31:16;;;;;;;5.35;0.70;;;8.70;99.90;;;;;;5056616;28;20960;-47
2022/09/27 04:34:09;;;;;;;6.38;0.90;;;8.70;99.90;;;;;;5030706;28;20151;-41
2022/09/27 04:36:36;;;;;;;2.92;0.93;;;8.70;99.90;;;;;;5091401;28;20481;-43
2022/09/27 04:39:08;;;;;;;4.68;0.70;;;8.70;99.90;;;;;;5042931;28;20423;-45
2022/09/27 04:41:36;;;;;;;4.10;0.95;;;8.70;99.90;;;;;;5043738;28;20047;-42
2022/09/27 04:44:03;;;;;;;3.65;0.80;;;8.70;99.90;;;;;;5060925;28;20052;-45
2022/09/27 04:46:30;;;;;;;4.43;0.57;;;8.70;99.90;;;;;;5059599;28;20502;-47
2022/09/27 04:48:58;;;;;;;2.83;0.65;;;8.70;99.90;;;;;;5061987;28;20119;-44
2022/09/27 04:51:25;;;;;;;4.47;0.90;;;8.70;99.90;;;;;;5061469;28;20048;-50
2022/09/27 04:53:54;;;;;;;3.58;0.70;;;8.70;99.90;;;;;;5042982;28;20140;-43
2022/09/27 04:56:20;;;;;;;4.88;0.82;;;8.70;99.90;;;;;;5060843;28;20123;-46
2022/09/27 04:58:46;;;;;;;4.03;0.60;;;8.70;99.90;;;;;;5081391;28;20109;-47
2022/09/27 05:01:13;;;;;;;2.03;0.93;;;8.70;99.90;;;;;;5060985;28;20106;-46
2022/09/27 05:03:41;;;;;;;4.88;1.00;;;8.70;99.90;;;;;;5062163;28;20086;-45
2022/09/27 05:06:11;;;;;;;4.38;1.00;;;8.80;99.90;;;;;;5043789;28;20144;-46
2022/09/27 05:08:38;;;;;;;3.47;0.60;;;8.70;99.90;;;;;;5041877;28;20048;-47
2022/09/27 05:11:25;;;;;;;5.28;0.90;;;8.70;99.90;;;;;;5042988;28;20927;-50
2022/09/27 05:14:10;;;;;;;4.20;0.60;;;8.70;99.90;;;;;;5075164;28;20146;-47
2022/09/27 05:16:57;;;;;;;2.78;0.57;;;8.70;99.90;;;;;;5047668;28;20080;-44
2022/09/27 05:19:46;;;;;;;3.42;0.70;;;8.60;99.90;;;;;;5007840;28;20129;-45
2022/09/27 05:22:20;;;;;;;5.53;0.70;;;8.60;99.90;;;;;;5045588;28;20733;-45
2022/09/27 05:24:47;;;;;;;2.75;0.80;;;8.50;99.90;;;;;;5053293;28;20056;-46
2022/09/27 05:27:17;;;;;;;5.50;0.95;;;8.60;99.90;;;;;;5045625;28;20043;-46
2022/09/27 05:29:45;;;;;;;4.65;0.80;;;8.50;99.90;;;;;;5056132;28;20048;-45
2022/09/27 05:32:20;;;;;;;3.45;1.00;;;8.50;99.90;;;;;;5046219;28;20051;-46
2022/09/27 05:34:53;;;;;;;5.40;1.10;;;8.50;99.90;;;;;;5063335;28;20834;-52
2022/09/27 05:37:19;;;;;;;6.22;0.95;;;8.40;99.90;;;;;;5046477;28;20075;-50
2022/09/27 05:39:47;;;;;;;2.50;0.90;;;8.40;99.90;;;;;;5057548;28;20547;-46
2022/09/27 05:42:14;;;;;;;3.20;0.85;;;8.40;99.90;;;;;;5060021;28;20098;-46
2022/09/27 05:44:41;;;;;;;4.80;1.08;;;8.40;99.90;;;;;;5058708;28;20509;-46
2022/09/27 05:47:08;;;;;;;4.80;1.35;;;8.30;99.90;;;;;;5075441;28;20083;-44
2022/09/27 05:49:34;;;;;;;3.00;0.90;;;8.20;99.90;;;;;;5063925;28;20496;-46
2022/09/27 05:52:02;;;;;;;4.72;1.10;;;8.20;99.90;;;;;;5054184;28;20441;-52
2022/09/27 05:54:29;;;;;;;3.92;1.33;;;8.10;99.90;;;;;;5054459;28;20123;-51
2022/09/27 05:56:58;;;;;;;3.53;0.90;;;8.10;99.90;;;;;;5020635;28;20052;-49
2022/09/27 05:59:32;;;;;;;5.80;1.20;;;8.10;99.90;;;;;;5069378;28;20063;-50
2022/09/27 06:02:17;;;;;;;8.02;1.08;;;8.00;99.90;;;;;;5074473;28;20071;-43
2022/09/27 06:05:02;;;;;;;4.20;1.00;;;8.10;99.90;;;;;;5053310;28;20042;-49
2022/09/27 06:07:34;;;;;;;7.35;1.50;;;8.10;99.90;;;;;;5080414;28;20543;-43
2022/09/27 06:10:03;;;;;;;5.97;1.10;;;8.20;99.90;;;;;;5058714;28;20051;-44
2022/09/27 06:12:29;;;;;;;7.25;1.38;;;8.20;99.90;;;;;;5042761;28;20056;-43
2022/09/27 06:14:56;;;;;;;4.28;1.30;;;8.20;99.90;;;;;;5025392;28;20194;-46
2022/09/27 06:17:37;;;;;;;5.55;1.73;;;8.20;99.90;;;;;;5041885;28;20629;-48
2022/09/27 06:20:12;;;;;;;4.90;1.13;;;8.20;99.90;;;;;;5043635;28;20783;-49
2022/09/27 06:22:39;;;;;;;4.82;1.08;;;8.20;99.90;;;;;;5029524;28;20040;-48
2022/09/27 06:25:06;;;;;;;5.55;1.50;;;8.20;99.90;;;;;;5061854;28;20056;-47
2022/09/27 06:27:39;;;;;;;4.22;1.33;;;8.20;99.90;;;;;;5029937;28;20044;-50
2022/09/27 06:30:11;;;;;;;5.30;1.10;;;8.20;99.90;;;;;;5046032;28;20422;-49
2022/09/27 06:33:09;;;;;;;3.85;1.02;;;8.30;99.90;;;;;;5060295;28;20039;-51
2022/09/27 06:35:41;;;;;;;6.25;1.20;;;8.40;99.90;;;;;;5043747;28;20059;-48
2022/09/27 06:38:10;;;;;;;5.43;1.33;;;8.60;99.90;;;;;;5061865;28;20051;-48
2022/09/27 06:40:44;;;;;;;5.70;1.42;;;8.70;99.90;;;;;;5064887;28;20051;-53
2022/09/27 06:43:40;;;;;;;8.32;1.33;;;8.80;99.90;;;;;;5066927;28;20516;-41
2022/09/27 06:46:32;;;;;;;;;;;8.80;99.90;;;;;;5037524;28;20506;-42
2022/09/27 06:49:12;;;;;;;4.85;1.10;;;8.90;99.90;;;;;;5079947;28;19921;-42
2022/09/27 06:51:39;;;;;;;7.82;1.45;;;9.00;99.90;;;;;;5048174;28;20043;-41
2022/09/27 06:54:05;;;;;;;6.25;1.23;;;9.00;99.90;;;;;;5037317;28;20052;-50
2022/09/27 06:56:31;;;;;;;6.15;1.50;;;9.00;99.90;;;;;;5044987;28;20048;-50
2022/09/27 07:01:43;;;;;;;6.90;1.10;;;9.00;99.90;;;;;;5057360;28;20185;-42
2022/09/27 07:04:28;;;;;;;3.95;1.10;;;9.10;99.90;;;;;;5053807;28;20410;-47
2022/09/27 07:06:58;;;;;;;6.97;1.05;;;9.00;99.90;;;;;;5041574;28;20177;-46
2022/09/27 07:09:28;;;;;;;6.95;1.17;;;9.00;99.90;;;;;;5042127;28;20062;-50
2022/09/27 07:11:54;;;;;;;5.57;1.20;;;9.10;99.90;;;;;;5054112;28;20044;-50
2022/09/27 07:14:21;;;;;;;4.45;1.30;;;9.10;99.90;;;;;;5076042;28;20764;-50
2022/09/27 07:16:47;;;;;;;9.60;1.33;;;9.20;99.90;;;;;;5047856;28;20056;-47
2022/09/27 07:19:14;;;;;;;7.78;1.25;;;9.20;99.90;;;;;;5041996;28;20101;-47
2022/09/27 07:21:40;;;;;;;4.93;1.42;;;9.20;99.90;;;;;;5043129;28;20056;-51
2022/09/27 07:24:06;;;;;;;5.90;1.13;;;9.30;99.90;;;;;;5060449;28;20059;-48
2022/09/27 07:26:33;;;;;;;4.97;1.40;;;9.30;99.90;;;;;;5043516;28;20114;-46
2022/09/27 07:29:00;;;;;;;5.15;1.40;;;9.40;99.90;;;;;;5043829;28;20634;-51
2022/09/27 07:31:28;;;;;;;5.50;1.33;;;9.40;99.90;;;;;;5059341;28;20043;-45
2022/09/27 07:33:55;;;;;;;4.00;1.10;;;9.40;99.90;;;;;;5062656;28;20144;-42
2022/09/27 07:36:21;;;;;;;3.35;1.02;;;9.50;99.90;;;;;;5078581;28;20054;-43
2022/09/27 07:38:47;;;;;;;3.65;1.00;;;9.50;99.90;;;;;;5025708;28;20461;-41
2022/09/27 07:41:16;;;;;;;3.03;0.93;;;9.60;99.90;;;;;;5043242;28;20584;-47
2022/09/27 07:43:44;;;;;;;4.93;1.00;;;9.70;99.90;;;;;;5056457;28;20135;-42
2022/09/27 07:46:10;;;;;;;5.45;1.30;;;9.70;99.90;;;;;;5045231;28;20683;-42
2022/09/27 07:48:45;;;;;;;4.47;1.30;;;9.80;99.90;;;;;;5060078;28;20117;-42
2022/09/27 07:51:33;;;;;;;3.78;1.55;;;10.00;99.90;;;;;;5059547;28;20044;-42
2022/09/27 07:54:06;;;;;;;5.03;1.02;;;10.60;99.90;;;;;;5042209;28;20048;-43
2022/09/27 07:56:51;;;;;;;3.90;1.00;;;11.50;99.90;;;;;;5064453;28;20529;-46
2022/09/27 07:59:19;;;;;;;3.28;0.70;;;12.40;99.90;;;;;;5056576;28;20040;-46
2022/09/27 08:01:45;;;;;;;5.18;0.90;;;12.80;99.90;;;;;;5078276;28;20462;-42
2022/09/27 08:04:12;;;;;;;3.85;0.80;;;13.40;99.90;;;;;;5058315;28;20052;-45
2022/09/27 08:06:38;;;;;;;3.00;0.70;;;14.00;99.90;;;;;;5059657;28;20044;-44
2022/09/27 08:09:08;;;;;;;3.35;0.70;;;14.50;99.90;;;;;;5042702;28;20410;-46
2022/09/27 08:11:36;;;;;;;4.80;0.80;;;15.30;99.90;;;;;;5056181;28;20047;-48
2022/09/27 08:14:03;;;;;;;3.03;0.60;;;15.40;99.90;;;;;;5036898;28;20480;-48
2022/09/27 08:16:34;;;;;;;4.75;0.80;;;15.70;99.90;;;;;;5041212;28;20131;-44
2022/09/27 08:19:16;;;;;;;2.92;0.80;;;16.00;99.90;;;;;;5059068;28;20059;-43
2022/09/27 08:21:55;;;;;;;4.18;0.80;;;16.30;99.90;;;;;;5077452;28;20052;-48
2022/09/27 08:24:23;;;;;;;5.63;0.93;;;16.20;99.90;;;;;;5060315;28;20047;-48
2022/09/27 08:27:11;;;;;;;3.70;0.70;;;15.90;99.90;;;;;;5052479;28;20085;-50
2022/09/27 08:30:08;;;;;;;4.38;0.70;;;15.50;99.90;;;;;;5022972;28;20134;-47
2022/09/27 08:32:34;;;;;;;4.03;0.60;;;15.10;99.90;;;;;;5055617;28;20120;-48
2022/09/27 08:35:01;;;;;;;4.88;0.70;;;14.70;99.90;;;;;;5058984;28;20086;-50
2022/09/27 08:37:27;;;;;;;4.03;0.50;;;14.40;99.90;;;;;;5059124;28;20059;-48
2022/09/27 08:39:53;;;;;;;4.95;0.82;;;14.10;99.90;;;;;;5078528;28;20128;-46
2022/09/27 08:42:23;;;;;;;4.50;0.80;;;14.00;99.90;;;;;;5062989;28;20079;-47
2022/09/27 08:45:12;;;;;;;3.45;0.50;;;14.50;99.90;;;;;;5072032;28;20094;-44
2022/09/27 08:47:48;;;;;;;6.38;1.30;;;15.10;99.90;;;;;;5042937;28;20051;-44
2022/09/27 08:50:22;;;;;;;3.45;0.73;;;15.40;99.90;;;;;;5073316;28;20044;-47
2022/09/27 08:52:53;;;;;;;2.72;0.77;;;15.90;99.90;;;;;;5044227;28;20048;-50
2022/09/27 08:55:37;;;;;;;3.08;0.60;;;16.00;99.90;;;;;;5080593;28;20130;-48
2022/09/27 08:58:18;;;;;;;2.78;0.65;;;16.70;99.90;;;;;;5063438;28;20055;-50
2022/09/27 09:00:45;;;;;;;4.95;0.75;;;17.10;99.90;;;;;;5061881;28;20136;-49
2022/09/27 09:03:23;;;;;;;2.95;1.02;;;17.20;99.90;;;;;;5048372;28;20688;-51
2022/09/27 09:06:16;;;;;;;2.65;0.40;;;17.70;99.90;;;;;;5061583;28;20055;-50
2022/09/27 09:09:10;;;;;;;2.83;0.43;;;18.00;99.90;;;;;;5046535;28;20060;-50
2022/09/27 09:15:13;;;;;;;2.75;0.80;;;17.10;99.90;;;;;;5062112;28;20055;-52
2022/09/27 09:18:00;;;;;;;4.03;0.85;;;16.40;99.90;;;;;;5035109;28;20041;-51
2022/09/27 09:20:54;;;;;;;3.47;1.02;;;15.60;99.90;;;;;;5036290;28;20443;-51
2022/09/27 09:23:23;;;;;;;2.67;0.73;;;15.00;99.90;;;;;;5055899;28;20387;-49
2022/09/27 09:26:14;;;;;;;3.97;0.50;;;14.50;99.90;;;;;;5028283;28;20055;-51
2022/09/27 09:29:00;;;;;;;2.63;0.60;;;14.00;99.90;;;;;;5060636;28;20493;-52
2022/09/27 09:31:50;;;;;;;0.60;0.35;;;13.70;99.90;;;;;;5045887;28;20063;-48
2022/09/27 09:34:31;;;;;;;2.75;0.50;;;13.40;99.90;;;;;;5076585;28;20455;-50
2022/09/27 09:37:23;;;;;;;2.65;0.90;;;13.10;99.90;;;;;;5030123;28;20102;-52
2022/09/27 09:40:10;;;;;;;2.45;0.60;;;13.00;99.90;;;;;;5083228;28;20051;-50
2022/09/27 09:42:43;;;;;;;3.80;1.00;;;13.00;99.90;;;;;;5074527;28;21830;-50
2022/09/27 09:45:25;;;;;;;2.42;0.68;;;12.90;99.90;;;;;;5011836;28;20051;-52
2022/09/27 09:48:16;;;;;;;2.80;0.50;;;12.80;99.90;;;;;;5042532;28;20044;-50
2022/09/27 09:50:50;;;;;;;2.25;0.38;;;12.90;99.90;;;;;;5060204;28;20123;-50
2022/09/27 09:53:29;;;;;;;2.28;0.70;;;13.10;99.90;;;;;;5042593;28;20046;-47
2022/09/27 09:56:04;;;;;;;4.03;0.93;;;13.70;99.90;;;;;;5078024;28;20048;-53
2022/09/27 09:59:01;;;;;;;3.75;0.50;;;14.20;99.90;;;;;;5062186;28;20048;-51
2022/09/27 10:01:39;;;;;;;;;;;14.10;99.90;;;;;;5060260;28;20464;-52
2022/09/27 10:04:06;;;;;;;2.67;0.77;;;13.90;99.90;;;;;;5078927;28;19928;-52
2022/09/27 10:06:32;;;;;;;3.15;1.05;;;14.20;99.90;;;;;;5061462;28;20119;-51
2022/09/27 10:09:00;;;;;;;1.50;0.38;;;14.20;99.90;;;;;;5061409;28;20052;-55
2022/09/27 10:11:40;;;;;;;2.22;0.40;;;14.40;99.90;;;;;;5045219;28;20043;-49
2022/09/27 10:14:16;;;;;;;2.55;0.50;;;14.60;99.90;;;;;;5060287;28;20043;-51
2022/09/27 10:16:52;;;;;;;3.03;0.57;;;14.80;99.90;;;;;;5043233;28;20440;-51
2022/09/27 10:19:29;;;;;;;6.25;2.13;;;15.20;99.90;;;;;;5043729;28;20063;-52
2022/09/27 10:22:09;;;;;;;0.82;0.25;;;15.30;99.90;;;;;;5075144;28;20082;-52
2022/09/27 10:24:55;;;;;;;2.08;0.30;;;15.20;99.90;;;;;;5081097;28;20128;-50
2022/09/27 10:27:56;;;;;;;3.20;0.77;;;15.20;99.90;;;;;;5014740;28;20099;-53
2022/09/27 10:30:33;;;;;;;2.00;0.40;;;15.20;99.90;;;;;;5046024;28;20505;-53
2022/09/27 10:33:16;;;;;;;1.10;0.20;;;15.20;99.90;;;;;;5060340;28;20047;-53
2022/09/27 10:35:49;;;;;;;2.75;1.02;;;15.10;99.90;;;;;;5039716;28;20138;-53
2022/09/27 10:38:26;;;;;;;3.25;0.90;;;15.00;99.90;;;;;;5059514;28;20056;-52
2022/09/27 10:41:16;;;;;;;3.45;0.47;;;15.10;99.90;;;;;;5056694;28;20490;-47
2022/09/27 10:43:42;;;;;;;2.47;0.47;;;15.30;99.90;;;;;;5075065;28;20044;-47
2022/09/27 10:46:31;;;;;;;3.20;1.15;;;15.60;99.90;;;;;;5012709;28;20041;-50
2022/09/27 10:49:36;;;;;;;4.00;1.63;;;16.20;99.90;;;;;;5051880;28;20048;-51
2022/09/27 10:52:14;;;;;;;3.15;0.38;;;16.90;99.90;;;;;;5058821;28;20047;-53
2022/09/27 10:54:42;;;;;;;3.67;0.85;;;17.70;99.90;;;;;;5057759;28;20085;-54
2022/09/27 10:57:27;;;;;;;2.58;0.50;;;18.00;99.90;;;;;;5045090;28;20785;-52
2022/09/27 11:00:01;;;;;;;1.75;0.70;;;18.30;99.90;;;;;;5077323;28;20097;-53
2022/09/27 11:02:31;;;;;;;2.00;1.30;;;17.80;99.90;;;;;;5059733;28;20056;-53
2022/09/27 11:05:13;;;;;;;1.50;0.30;;;17.60;99.90;;;;;;5058057;28;20502;-53
2022/09/27 11:07:48;;;;;;;1.73;0.40;;;17.20;99.90;;;;;;5042254;28;20845;-53
2022/09/27 11:10:35;;;;;;;0.95;0.52;;;17.00;99.90;;;;;;5023733;28;20040;-46
2022/09/27 11:13:05;;;;;;;2.28;0.82;;;17.10;99.90;;;;;;5040594;28;20732;-45
2022/09/27 11:15:57;;;;;;;1.50;0.47;;;17.50;99.90;;;;;;5060681;28;20047;-47
2022/09/27 11:18:36;;;;;;;4.28;1.33;;;17.60;99.90;;;;;;5041346;28;20063;-51
2022/09/27 11:21:14;;;;;;;2.40;0.45;;;17.40;99.90;;;;;;5073121;28;20119;-54
2022/09/27 11:24:16;;;;;;;4.53;1.65;;;16.80;99.90;;;;;;5059705;28;20152;-53
2022/09/27 11:27:08;;;;;;;2.72;0.35;;;15.20;99.90;;;;;;5072454;28;20123;-51
2022/09/27 11:30:04;;;;;;;1.73;0.45;;;14.40;99.90;;;;;;5057377;28;20086;-52
2022/09/27 11:33:08;;;;;;;2.95;0.60;;;14.00;99.90;;;;;;5059676;28;20044;-52
2022/09/27 11:36:13;;;;;;;2.05;0.50;;;13.50;99.90;;;;;;5043476;28;20048;-45
2022/09/27 11:39:06;;;;;;;2.25;0.40;;;13.50;99.90;;;;;;5056922;28;20771;-51
2022/09/27 11:42:00;;;;;;;3.88;1.05;;;13.60;99.90;;;;;;5072316;28;20048;-47
2022/09/27 11:44:52;;;;;;;1.60;0.50;;;14.60;99.90;;;;;;5089947;28;20057;-48
2022/09/27 11:47:42;;;;;;;1.48;0.55;;;15.70;99.90;;;;;;5056284;28;20045;-46
2022/09/27 11:50:30;;;;;;;1.50;0.30;;;16.30;99.90;;;;;;5046505;28;20099;-49
2022/09/27 11:53:42;;;;;;;0.73;0.22;;;16.70;99.90;;;;;;5060014;28;20051;-50
2022/09/27 11:56:37;;;;;;;1.50;0.30;;;17.40;99.90;;;;;;4981414;28;20156;-49
2022/09/27 11:59:37;;;;;;;1.15;0.40;;;17.10;99.90;;;;;;4992070;28;20051;-48
2022/09/27 12:02:32;;;;;;;3.80;0.68;;;17.20;99.90;;;;;;5050180;28;20060;-49
2022/09/27 12:05:30;;;;;;;0.90;0.32;;;17.10;99.90;;;;;;5031948;28;20422;-50
2022/09/27 12:08:25;;;;;;;0.60;0.28;;;16.80;99.90;;;;;;5047365;28;20056;-46
2022/09/27 12:11:25;;;;;;;1.75;0.77;;;16.50;99.90;;;;;;5033243;28;20085;-48
2022/09/27 12:13:59;;;;;;;1.67;0.30;;;16.20;99.90;;;;;;4998415;28;20046;-45
2022/09/27 12:16:26;;;;;;;1.10;0.30;;;16.30;99.90;;;;;;5014144;28;20084;-49
2022/09/27 12:18:54;;;;;;;0.65;0.20;;;16.40;99.90;;;;;;5035509;28;20067;-51
2022/09/27 12:21:47;;;;;;;1.33;0.30;;;16.70;99.90;;;;;;4997488;28;20521;-52
2022/09/27 12:24:22;;;;;;;0.20;0.20;;;17.40;99.90;;;;;;5029206;28;20056;-53
2022/09/27 12:27:15;;;;;;;1.55;0.30;;;17.20;99.90;;;;;;5021456;28;20855;-52
2022/09/27 12:29:44;;;;;;;2.50;0.82;;;17.30;99.90;;;;;;5023747;28;20071;-53
2022/09/27 12:32:14;;;;;;;2.38;0.80;;;17.40;99.90;;;;;;5025013;28;20053;-53
2022/09/27 12:34:53;;;;;;;1.13;0.50;;;17.30;99.90;;;;;;5037249;28;20048;-52
2022/09/27 12:37:32;;;;;;;1.52;0.57;;;17.20;99.90;;;;;;5039412;28;20072;-53
2022/09/27 12:40:06;;;;;;;2.60;0.98;;;16.70;99.90;;;;;;5037300;28;20048;-47
2022/09/27 12:42:59;;;;;;;2.78;0.68;;;16.80;99.90;;;;;;5040086;28;20128;-48
2022/09/27 12:45:49;;;;;;;2.72;0.40;;;16.40;99.90;;;;;;5018643;28;20045;-46
2022/09/27 12:48:47;;;;;;;2.65;1.05;;;15.80;99.90;;;;;;5023703;28;20045;-49
2022/09/27 12:51:16;;;;;;;7.00;1.63;;;15.20;99.90;;;;;;5022132;28;20068;-48
2022/09/27 12:54:11;;;;;;;3.38;0.50;;;14.90;99.90;;;;;;5038138;28;20797;-49
2022/09/27 12:57:00;;;;;;;2.25;0.80;;;14.70;99.90;;;;;;5039478;28;20049;-49
2022/09/27 12:59:55;;;;;;;2.35;0.60;;;14.80;99.90;;;;;;5037580;28;20048;-44
2022/09/27 13:02:52;;;;;;;2.45;0.52;;;14.60;99.90;;;;;;5043205;28;20083;-46
2022/09/27 13:05:56;;;;;;;1.83;0.57;;;14.70;99.90;;;;;;5044777;28;20052;-45
2022/09/27 13:08:53;;;;;;;4.63;3.50;;;15.30;99.90;;;;;;5076380;28;20055;-47
2022/09/27 13:11:35;;;;;;;5.85;1.15;;;16.40;99.90;;;;;;5061437;28;20051;-48
2022/09/27 13:14:03;;;;;;;3.50;0.57;;;16.40;99.90;;;;;;5079843;28;20151;-46
2022/09/27 13:16:29;;;;;;;3.50;0.65;;;16.10;99.90;;;;;;5064665;28;20078;-46
2022/09/27 13:19:00;;;;;;;4.85;0.60;;;15.80;99.90;;;;;;5062371;28;20131;-48
2022/09/27 13:21:48;;;;;;;3.85;1.25;;;15.40;99.90;;;;;;5063237;28;20055;-44
2022/09/27 13:24:38;;;;;;;4.78;0.82;;;15.00;99.90;;;;;;5079903;28;20173;-45
2022/09/27 13:27:27;;;;;;;3.05;0.73;;;14.90;99.90;;;;;;5046929;28;20079;-49
2022/09/27 13:30:18;;;;;;;3.90;0.82;;;14.40;99.90;;;;;;5048027;28;20131;-48
2022/09/27 13:33:08;;;;;;;4.75;0.50;;;14.40;99.90;;;;;;5016334;28;20585;-49
2022/09/27 13:36:21;;;;;;;1.98;0.60;;;14.20;99.90;;;;;;5047267;28;20044;-43
2022/09/27 13:39:05;;;;;;;3.83;1.00;;;14.50;99.90;;;;;;5070551;28;20123;-47
2022/09/27 13:41:44;;;;;;;1.65;0.52;;;14.90;99.90;;;;;;5060745;28;20044;-47
2022/09/27 13:44:39;;;;;;;4.95;1.00;;;14.80;99.90;;;;;;5068775;28;20064;-49
2022/09/27 13:47:32;;;;;;;6.53;2.05;;;14.80;99.90;;;;;;5058399;28;20048;-46
2022/09/27 13:50:46;;;;;;;3.92;0.98;;;14.60;99.90;;;;;;5077058;28;20101;-49
2022/09/27 13:53:21;;;;;;;;;;;14.40;99.90;;;;;;5061068;28;20155;-46